Time;durP1;ratioP1;P1;durP2;ratioP2;P2;SDS_P1;SDS_P2;PMS_P1;PMS_P2;Temp;Humidity;BMP_temperature;BMP_pressure;BME280_temperature;BME280_humidity;BME280_pressure;Samples;Min_cycle;Max_cycle;Signal;HPM_P1;HPM_P2
2021/05/13 00:00:44;;;;;;;9.55;6.10;;;;;;;;;;4876876;29;20029;-74
2021/05/13 00:03:10;;;;;;;8.55;6.10;;;;;;;;;;4876704;29;20039;-74
2021/05/13 00:05:36;;;;;;;11.50;6.35;;;;;;;;;;4878074;29;20033;-74
2021/05/13 00:08:03;;;;;;;9.60;5.95;;;;;;;;;;4863879;29;20041;-72
2021/05/13 00:10:29;;;;;;;9.20;5.90;;;;;;;;;;4880572;29;20029;-73
2021/05/13 00:13:00;;;;;;;11.13;6.28;;;;;;;;;;4880276;29;20033;-75
2021/05/13 00:15:28;;;;;;;8.38;6.05;;;;;;;;;;4880570;29;20684;-75
2021/05/13 00:17:55;;;;;;;8.93;6.50;;;;;;;;;;4880574;29;20051;-74
2021/05/13 00:20:27;;;;;;;8.40;6.15;;;;;;;;;;4880632;29;20512;-74
2021/05/13 00:22:53;;;;;;;8.77;4.88;;;;;;;;;;4880452;29;20037;-74
2021/05/13 00:25:19;;;;;;;9.98;6.22;;;;;;;;;;4880359;29;20032;-74
2021/05/13 00:27:46;;;;;;;7.75;5.88;;;;;;;;;;4880073;29;20481;-74
2021/05/13 00:30:12;;;;;;;7.88;5.60;;;;;;;;;;4880169;29;20401;-74
2021/05/13 00:32:39;;;;;;;6.65;5.38;;;;;;;;;;4880253;29;20053;-73
2021/05/13 00:35:12;;;;;;;7.47;5.57;;;;;;;;;;4880538;29;20104;-75
2021/05/13 00:37:38;;;;;;;6.53;4.80;;;;;;;;;;4879904;29;20393;-71
2021/05/13 00:40:05;;;;;;;8.75;5.38;;;;;;;;;;4880384;29;20033;-73
2021/05/13 00:42:31;;;;;;;10.13;5.32;;;;;;;;;;4879820;29;20032;-72
2021/05/13 00:44:58;;;;;;;8.63;5.30;;;;;;;;;;4880024;29;20064;-74
2021/05/13 00:47:26;;;;;;;7.25;5.00;;;;;;;;;;4880084;29;20069;-73
2021/05/13 00:49:52;;;;;;;7.95;4.80;;;;;;;;;;4880049;29;20021;-74
2021/05/13 00:52:19;;;;;;;9.60;5.15;;;;;;;;;;4863157;29;20037;-70
2021/05/13 00:54:46;;;;;;;8.98;5.18;;;;;;;;;;4879813;29;20029;-73
2021/05/13 00:57:15;;;;;;;7.50;5.50;;;;;;;;;;4879756;29;20386;-71
2021/05/13 00:59:44;;;;;;;12.10;5.25;;;;;;;;;;4879976;29;20066;-74
2021/05/13 01:02:11;;;;;;;9.00;5.43;;;;;;;;;;4879848;29;20025;-68
2021/05/13 01:04:37;;;;;;;7.43;4.80;;;;;;;;;;4879895;29;20057;-74
2021/05/13 01:07:03;;;;;;;8.52;5.57;;;;;;;;;;4879270;29;20029;-74
2021/05/13 01:09:32;;;;;;;10.95;5.50;;;;;;;;;;4878720;29;20029;-68
2021/05/13 01:12:01;;;;;;;8.25;5.45;;;;;;;;;;4863768;29;20116;-73
2021/05/13 01:14:31;;;;;;;8.55;5.72;;;;;;;;;;4880740;29;20064;-71
2021/05/13 01:19:39;;;;;;;8.63;5.30;;;;;;;;;;4879528;29;20033;-74
2021/05/13 01:22:05;;;;;;;8.55;5.78;;;;;;;;;;4879435;29;20056;-73
2021/05/13 01:24:32;;;;;;;8.20;5.43;;;;;;;;;;4879419;29;20482;-73
2021/05/13 01:26:58;;;;;;;10.50;6.07;;;;;;;;;;4879274;29;20044;-74
2021/05/13 01:29:25;;;;;;;8.38;6.05;;;;;;;;;;4879271;29;20509;-73
2021/05/13 01:31:51;;;;;;;7.90;5.95;;;;;;;;;;4879472;29;20656;-71
2021/05/13 01:34:17;;;;;;;9.85;6.15;;;;;;;;;;4879142;29;20033;-74
2021/05/13 01:36:44;;;;;;;9.27;6.10;;;;;;;;;;4879077;29;20478;-73
2021/05/13 01:39:11;;;;;;;10.35;6.28;;;;;;;;;;4879027;29;20037;-74
2021/05/13 01:41:37;;;;;;;8.55;6.18;;;;;;;;;;4879320;29;20028;-74
2021/05/13 01:44:04;;;;;;;9.98;5.95;;;;;;;;;;4878953;29;20436;-72
2021/05/13 01:46:30;;;;;;;8.65;6.43;;;;;;;;;;4878256;29;20033;-74
2021/05/13 01:48:56;;;;;;;8.35;6.20;;;;;;;;;;4877281;29;20064;-72
2021/05/13 01:51:22;;;;;;;10.65;6.22;;;;;;;;;;4878817;29;20033;-74
2021/05/13 01:53:49;;;;;;;8.57;5.97;;;;;;;;;;4878389;29;20029;-74
2021/05/13 01:56:16;;;;;;;8.43;5.93;;;;;;;;;;4878857;29;20063;-74
2021/05/13 01:58:43;;;;;;;8.80;5.65;;;;;;;;;;4878550;29;20398;-73
2021/05/13 02:01:12;;;;;;;7.80;5.28;;;;;;;;;;4878589;29;20067;-74
2021/05/13 02:03:38;;;;;;;9.32;5.85;;;;;;;;;;4878296;29;20064;-73
2021/05/13 02:06:05;;;;;;;9.90;5.65;;;;;;;;;;4878467;29;20029;-70
2021/05/13 02:08:31;;;;;;;8.20;5.38;;;;;;;;;;4878283;29;20040;-73
2021/05/13 02:10:57;;;;;;;7.85;5.10;;;;;;;;;;4878489;29;20133;-73
2021/05/13 02:13:24;;;;;;;7.80;5.43;;;;;;;;;;4867170;29;20440;-72
2021/05/13 02:15:50;;;;;;;7.75;5.93;;;;;;;;;;4890879;29;20052;-64
2021/05/13 02:18:16;;;;;;;10.20;6.50;;;;;;;;;;4890246;29;20053;-74
2021/05/13 02:20:42;;;;;;;12.32;5.93;;;;;;;;;;4895386;29;20120;-74
2021/05/13 02:23:08;;;;;;;10.07;6.22;;;;;;;;;;4879905;29;20393;-73
2021/05/13 02:25:38;;;;;;;8.70;5.20;;;;;;;;;;4896194;29;20485;-74
2021/05/13 02:28:04;;;;;;;8.38;5.70;;;;;;;;;;4895210;29;20045;-69
2021/05/13 02:30:30;;;;;;;7.72;5.22;;;;;;;;;;4895824;29;20079;-68
2021/05/13 02:32:56;;;;;;;8.70;5.05;;;;;;;;;;4895272;29;20092;-74
2021/05/13 02:35:23;;;;;;;8.93;4.85;;;;;;;;;;4896280;29;20027;-67
2021/05/13 02:37:49;;;;;;;5.88;4.28;;;;;;;;;;4895047;29;20485;-73
2021/05/13 02:40:16;;;;;;;5.97;4.50;;;;;;;;;;4894249;29;20075;-73
2021/05/13 02:42:43;;;;;;;13.00;4.90;;;;;;;;;;4892058;29;20024;-74
2021/05/13 02:45:10;;;;;;;8.40;4.45;;;;;;;;;;4892430;29;20037;-74
2021/05/13 02:47:36;;;;;;;7.20;4.72;;;;;;;;;;4896380;29;20100;-71
2021/05/13 02:50:04;;;;;;;7.47;4.75;;;;;;;;;;4896212;29;20035;-73
2021/05/13 02:52:30;;;;;;;9.43;5.28;;;;;;;;;;4896419;29;20397;-73
2021/05/13 02:54:56;;;;;;;8.32;5.05;;;;;;;;;;4896192;29;20378;-73
2021/05/13 02:57:22;;;;;;;10.13;4.88;;;;;;;;;;4896276;29;20044;-73
2021/05/13 03:00:51;;;;;;;9.93;4.85;;;;;;;;;;4896084;29;20039;-73
2021/05/13 03:02:44;;;;;;;8.07;4.90;;;;;;;;;;4883784;29;20044;-73
2021/05/13 03:05:10;;;;;;;9.45;5.32;;;;;;;;;;4896070;29;20051;-74
2021/05/13 03:07:52;;;;;;;10.50;5.18;;;;;;;;;;4895961;29;20040;-74
2021/05/13 03:12:50;;;;;;;8.75;5.43;;;;;;;;;;4894872;29;20041;-72
2021/05/13 03:15:16;;;;;;;9.43;5.18;;;;;;;;;;4877470;29;20041;-74
2021/05/13 03:17:42;;;;;;;10.15;5.25;;;;;;;;;;4877628;29;20052;-74
2021/05/13 03:20:10;;;;;;;10.75;5.45;;;;;;;;;;4877529;29;20100;-73
2021/05/13 03:22:36;;;;;;;7.75;5.78;;;;;;;;;;4877468;29;20089;-74
2021/05/13 03:25:05;;;;;;;7.72;5.40;;;;;;;;;;4877298;29;20521;-74
2021/05/13 03:30:07;;;;;;;13.60;9.80;;;;;;;;;;4877402;29;20037;-73
2021/05/13 03:32:33;;;;;;;12.40;7.15;;;;;;;;;;4877237;29;20575;-73
2021/05/13 03:35:00;;;;;;;9.45;5.82;;;;;;;;;;4877270;29;20532;-74
2021/05/13 03:37:28;;;;;;;10.10;5.75;;;;;;;;;;4877204;29;20165;-74
2021/05/13 03:39:57;;;;;;;10.05;5.57;;;;;;;;;;4879985;29;20032;-72
2021/05/13 03:42:23;;;;;;;13.73;7.70;;;;;;;;;;4883345;29;20033;-74
2021/05/13 03:44:50;;;;;;;14.85;7.00;;;;;;;;;;4883299;29;20478;-64
2021/05/13 03:47:16;;;;;;;15.63;6.60;;;;;;;;;;4883455;29;20033;-70
2021/05/13 03:49:42;;;;;;;13.73;5.78;;;;;;;;;;4883354;29;20116;-70
2021/05/13 03:52:08;;;;;;;10.23;5.22;;;;;;;;;;4883166;29;20029;-73
2021/05/13 03:54:34;;;;;;;12.63;6.00;;;;;;;;;;4883632;29;20150;-73
2021/05/13 03:57:00;;;;;;;11.80;6.03;;;;;;;;;;4883255;29;20108;-73
2021/05/13 03:59:28;;;;;;;10.80;5.82;;;;;;;;;;4883268;29;20040;-74
2021/05/13 04:02:24;;;;;;;16.17;6.28;;;;;;;;;;4883384;29;20072;-71
2021/05/13 04:04:50;;;;;;;14.13;6.20;;;;;;;;;;4883445;29;20060;-64
2021/05/13 04:07:16;;;;;;;12.18;6.50;;;;;;;;;;4883112;29;20096;-73
2021/05/13 04:09:43;;;;;;;10.52;6.10;;;;;;;;;;4882929;29;20051;-74
2021/05/13 04:12:09;;;;;;;10.73;6.13;;;;;;;;;;4866005;29;20464;-67
2021/05/13 04:14:35;;;;;;;10.00;6.78;;;;;;;;;;4882807;29;20060;-73
2021/05/13 04:17:05;;;;;;;12.15;6.25;;;;;;;;;;4866127;29;20037;-73
2021/05/13 04:19:31;;;;;;;11.98;5.93;;;;;;;;;;4866067;29;20497;-70
2021/05/13 04:21:57;;;;;;;15.57;6.50;;;;;;;;;;4882920;29;20481;-73
2021/05/13 04:24:24;;;;;;;13.07;7.00;;;;;;;;;;4882969;29;20455;-70
2021/05/13 04:26:50;;;;;;;7.85;6.20;;;;;;;;;;4866121;29;20044;-72
2021/05/13 04:29:16;;;;;;;19.85;7.10;;;;;;;;;;4882968;29;20112;-73
2021/05/13 04:31:42;;;;;;;12.75;7.28;;;;;;;;;;4883038;29;20030;-71
2021/05/13 04:34:08;;;;;;;12.90;6.22;;;;;;;;;;4882798;29;20080;-71
2021/05/13 04:36:34;;;;;;;15.63;6.93;;;;;;;;;;4882887;29;20033;-73
2021/05/13 04:39:00;;;;;;;14.90;6.63;;;;;;;;;;4882623;29;20124;-72
2021/05/13 04:41:30;;;;;;;12.88;7.30;;;;;;;;;;4882971;29;20025;-73
2021/05/13 04:43:56;;;;;;;17.55;8.90;;;;;;;;;;4882834;29;20033;-74
2021/05/13 04:46:25;;;;;;;17.15;9.15;;;;;;;;;;4865999;29;20493;-73
2021/05/13 04:51:18;;;;;;;15.60;7.05;;;;;;;;;;4881166;29;20036;-70
2021/05/13 04:53:47;;;;;;;15.13;7.65;;;;;;;;;;4862924;29;20049;-73
2021/05/13 04:56:13;;;;;;;12.27;6.90;;;;;;;;;;4863236;29;20037;-64
2021/05/13 04:58:39;;;;;;;15.02;6.72;;;;;;;;;;4879671;29;20056;-73
2021/05/13 05:01:05;;;;;;;16.23;7.47;;;;;;;;;;4880115;29;20040;-65
2021/05/13 05:03:31;;;;;;;15.82;8.00;;;;;;;;;;4862886;29;20132;-73
2021/05/13 05:05:57;;;;;;;14.00;7.20;;;;;;;;;;4879661;29;20103;-74
2021/05/13 05:08:23;;;;;;;15.15;6.82;;;;;;;;;;4879351;29;20033;-74
2021/05/13 05:10:49;;;;;;;11.15;6.10;;;;;;;;;;4879737;29;20031;-73
2021/05/13 05:13:15;;;;;;;10.90;5.55;;;;;;;;;;4879234;29;20053;-74
2021/05/13 05:15:42;;;;;;;10.65;5.45;;;;;;;;;;4879436;29;20029;-75
2021/05/13 05:18:08;;;;;;;13.90;5.70;;;;;;;;;;4879373;29;20490;-77
2021/05/13 05:20:34;;;;;;;13.38;5.45;;;;;;;;;;4879327;29;20029;-77
2021/05/13 05:23:00;;;;;;;10.73;4.95;;;;;;;;;;4879271;29;20055;-77
2021/05/13 05:25:26;;;;;;;7.50;4.88;;;;;;;;;;4879135;29;20033;-74
2021/05/13 05:27:52;;;;;;;11.65;5.57;;;;;;;;;;4878996;29;20037;-75
2021/05/13 05:30:18;;;;;;;8.20;4.82;;;;;;;;;;4878807;29;20036;-77
2021/05/13 05:32:44;;;;;;;8.85;5.38;;;;;;;;;;4878543;29;20481;-75
2021/05/13 05:35:10;;;;;;;14.15;5.03;;;;;;;;;;4878908;29;20542;-76
2021/05/13 05:37:39;;;;;;;6.57;4.47;;;;;;;;;;4878330;29;20115;-75
2021/05/13 05:40:05;;;;;;;10.30;4.55;;;;;;;;;;4878421;29;20092;-73
2021/05/13 05:42:32;;;;;;;8.85;5.40;;;;;;;;;;4877647;29;20112;-75
2021/05/13 05:44:58;;;;;;;6.88;5.20;;;;;;;;;;4877585;29;20051;-65
2021/05/13 05:47:24;;;;;;;7.57;5.32;;;;;;;;;;4875252;29;20450;-75
2021/05/13 05:49:50;;;;;;;9.20;5.78;;;;;;;;;;4860766;29;20029;-71
2021/05/13 05:52:16;;;;;;;10.35;6.57;;;;;;;;;;4861067;29;20041;-81
2021/05/13 05:54:42;;;;;;;10.30;7.25;;;;;;;;;;4877630;29;20037;-81
2021/05/13 05:57:08;;;;;;;12.55;7.30;;;;;;;;;;4860555;29;20482;-81
2021/05/13 05:59:34;;;;;;;10.65;7.43;;;;;;;;;;4877076;29;20126;-74
2021/05/13 06:02:01;;;;;;;10.73;7.95;;;;;;;;;;4876755;29;20021;-84
2021/05/13 06:04:27;;;;;;;12.20;8.55;;;;;;;;;;4876271;29;20032;-82
2021/05/13 06:06:53;;;;;;;8.88;7.70;;;;;;;;;;4877553;29;20452;-75
2021/05/13 06:09:21;;;;;;;12.13;8.10;;;;;;;;;;4878709;29;20036;-81
2021/05/13 06:11:48;;;;;;;14.88;9.05;;;;;;;;;;4881643;29;20057;-83
2021/05/13 06:14:15;;;;;;;12.15;9.02;;;;;;;;;;4882528;29;20065;-69
2021/05/13 06:16:42;;;;;;;13.40;9.27;;;;;;;;;;4859381;29;20524;-81
2021/05/13 06:19:10;;;;;;;12.68;9.10;;;;;;;;;;4875721;29;20047;-71
2021/05/13 06:21:39;;;;;;;16.42;9.25;;;;;;;;;;4870206;29;20021;-81
2021/05/13 06:24:08;;;;;;;14.25;9.73;;;;;;;;;;4868219;29;20082;-83
2021/05/13 06:26:34;;;;;;;12.65;8.75;;;;;;;;;;4875309;29;20542;-79
2021/05/13 06:29:01;;;;;;;12.98;8.65;;;;;;;;;;4877701;29;20029;-74
2021/05/13 06:31:27;;;;;;;10.10;7.57;;;;;;;;;;4877566;29;20021;-71
2021/05/13 06:33:53;;;;;;;9.50;7.05;;;;;;;;;;4877283;29;20497;-76
2021/05/13 06:36:19;;;;;;;12.95;7.53;;;;;;;;;;4876914;29;20077;-83
2021/05/13 06:38:46;;;;;;;9.40;6.68;;;;;;;;;;4877326;29;20159;-79
2021/05/13 06:41:13;;;;;;;8.32;5.68;;;;;;;;;;4877707;29;20104;-78
2021/05/13 06:43:39;;;;;;;9.75;6.40;;;;;;;;;;4876407;29;20033;-80
2021/05/13 06:46:05;;;;;;;9.93;5.63;;;;;;;;;;4876645;29;20107;-77
2021/05/13 06:48:34;;;;;;;8.93;6.28;;;;;;;;;;4874053;29;20029;-76
2021/05/13 06:51:00;;;;;;;9.80;6.50;;;;;;;;;;4876682;29;20023;-81
2021/05/13 06:53:26;;;;;;;12.75;7.32;;;;;;;;;;4876383;29;20033;-62
2021/05/13 06:55:53;;;;;;;9.60;5.57;;;;;;;;;;4876432;29;20048;-72
2021/05/13 06:58:20;;;;;;;7.95;3.58;;;;;;;;;;4876686;29;20045;-74
2021/05/13 07:00:46;;;;;;;10.63;3.88;;;;;;;;;;4875873;29;20485;-75
2021/05/13 07:03:12;;;;;;;9.18;3.65;;;;;;;;;;4876082;29;20069;-70
2021/05/13 07:05:38;;;;;;;12.00;5.78;;;;;;;;;;4873904;29;20029;-74
2021/05/13 07:08:05;;;;;;;11.07;5.47;;;;;;;;;;4876102;29;20036;-76
2021/05/13 07:10:32;;;;;;;9.55;4.57;;;;;;;;;;4875900;29;20029;-72
2021/05/13 07:13:00;;;;;;;10.05;4.82;;;;;;;;;;4876727;29;20040;-73
2021/05/13 07:15:34;;;;;;;12.18;4.65;;;;;;;;;;4860508;29;20025;-69
2021/05/13 07:18:00;;;;;;;8.07;4.25;;;;;;;;;;4873838;29;20036;-65
2021/05/13 07:20:27;;;;;;;9.30;4.80;;;;;;;;;;4876293;29;20394;-75
2021/05/13 07:22:53;;;;;;;7.63;4.50;;;;;;;;;;4875843;29;20542;-78
2021/05/13 07:25:20;;;;;;;19.85;5.90;;;;;;;;;;4872581;29;20025;-64
2021/05/13 07:27:46;;;;;;;7.50;3.88;;;;;;;;;;4876162;29;20028;-74
2021/05/13 07:30:18;;;;;;;7.25;4.18;;;;;;;;;;4876803;29;20024;-76
2021/05/13 07:32:44;;;;;;;10.13;4.75;;;;;;;;;;4858037;29;20032;-80
2021/05/13 07:35:12;;;;;;;10.15;4.15;;;;;;;;;;4858847;29;20369;-73
2021/05/13 07:37:38;;;;;;;11.88;4.43;;;;;;;;;;4859547;29;20044;-82
2021/05/13 07:40:05;;;;;;;8.18;3.90;;;;;;;;;;4874771;29;20025;-79
2021/05/13 07:42:32;;;;;;;7.63;4.05;;;;;;;;;;4876219;29;20037;-75
2021/05/13 07:44:58;;;;;;;8.13;4.20;;;;;;;;;;4876155;29;20021;-78
2021/05/13 07:47:25;;;;;;;8.02;3.50;;;;;;;;;;4876798;29;20036;-71
2021/05/13 07:49:51;;;;;;;7.45;3.00;;;;;;;;;;4876234;29;20025;-79
2021/05/13 07:52:17;;;;;;;7.28;2.95;;;;;;;;;;4877032;29;20025;-80
2021/05/13 07:54:43;;;;;;;6.43;3.13;;;;;;;;;;4876887;29;20029;-75
2021/05/13 07:57:12;;;;;;;8.20;2.60;;;;;;;;;;4876832;29;20060;-78
2021/05/13 07:59:38;;;;;;;4.78;2.65;;;;;;;;;;4877075;29;20044;-73
2021/05/13 08:02:05;;;;;;;7.07;2.88;;;;;;;;;;4876616;29;20036;-74
2021/05/13 08:04:31;;;;;;;7.95;2.95;;;;;;;;;;4876726;29;20036;-71
2021/05/13 08:06:57;;;;;;;7.10;3.25;;;;;;;;;;4876525;29;20030;-74
2021/05/13 08:09:23;;;;;;;8.07;3.08;;;;;;;;;;4876578;29;20029;-79
2021/05/13 08:11:49;;;;;;;5.68;2.47;;;;;;;;;;4876470;29;20070;-72
2021/05/13 08:14:15;;;;;;;6.90;2.42;;;;;;;;;;4876172;29;20064;-70
2021/05/13 08:16:41;;;;;;;6.50;3.03;;;;;;;;;;4876371;29;20048;-74
2021/05/13 08:19:08;;;;;;;13.93;3.10;;;;;;;;;;4859901;29;20033;-74
2021/05/13 08:21:35;;;;;;;10.10;3.13;;;;;;;;;;4876797;29;20061;-69
2021/05/13 08:24:01;;;;;;;7.07;2.60;;;;;;;;;;4876548;29;20393;-75
2021/05/13 08:26:28;;;;;;;5.30;2.50;;;;;;;;;;4877583;29;20066;-75
2021/05/13 08:28:55;;;;;;;6.70;2.50;;;;;;;;;;4880081;29;20053;-72
2021/05/13 08:31:21;;;;;;;5.15;2.38;;;;;;;;;;4880058;29;20029;-72
2021/05/13 08:33:47;;;;;;;3.97;1.95;;;;;;;;;;4880273;29;20157;-72
2021/05/13 08:36:13;;;;;;;4.45;2.00;;;;;;;;;;4880288;29;20501;-67
2021/05/13 08:38:39;;;;;;;5.22;2.20;;;;;;;;;;4879857;29;20044;-73
2021/05/13 08:41:05;;;;;;;7.70;3.05;;;;;;;;;;4879900;29;20033;-70
2021/05/13 08:43:31;;;;;;;9.55;4.07;;;;;;;;;;4862738;29;20033;-69
2021/05/13 08:45:58;;;;;;;3.78;1.83;;;;;;;;;;4877150;29;20057;-70
2021/05/13 08:48:25;;;;;;;6.20;1.90;;;;;;;;;;4879603;29;20059;-69
2021/05/13 08:50:53;;;;;;;5.05;1.90;;;;;;;;;;4862926;29;20040;-71
2021/05/13 08:53:20;;;;;;;5.50;1.90;;;;;;;;;;4878978;29;20105;-69
2021/05/13 08:55:46;;;;;;;6.38;1.83;;;;;;;;;;4861776;29;20404;-67
2021/05/13 08:58:12;;;;;;;5.40;1.95;;;;;;;;;;4879231;29;20044;-69
2021/05/13 09:00:39;;;;;;;3.45;1.70;;;;;;;;;;4866507;29;20029;-70
2021/05/13 09:03:05;;;;;;;5.25;2.35;;;;;;;;;;4867679;29;20116;-65
2021/05/13 09:05:31;;;;;;;3.88;1.83;;;;;;;;;;4879924;29;20081;-71
2021/05/13 09:08:04;;;;;;;3.80;1.70;;;;;;;;;;4879366;29;20029;-67
2021/05/13 09:10:30;;;;;;;6.13;1.83;;;;;;;;;;4879445;29;20497;-70
2021/05/13 09:12:56;;;;;;;3.30;1.52;;;;;;;;;;4861829;29;20573;-70
2021/05/13 09:15:24;;;;;;;4.90;1.90;;;;;;;;;;4862232;29;20565;-69
2021/05/13 09:18:14;;;;;;;4.38;1.67;;;;;;;;;;4879048;29;20033;-70
2021/05/13 09:20:43;;;;;;;5.18;1.30;;;;;;;;;;4879115;29;20047;-71
2021/05/13 09:23:10;;;;;;;4.43;1.38;;;;;;;;;;4879250;29;20073;-71
2021/05/13 09:25:36;;;;;;;4.50;1.65;;;;;;;;;;4879552;29;20386;-71
2021/05/13 09:28:03;;;;;;;3.67;1.58;;;;;;;;;;4879277;29;20072;-71
2021/05/13 09:30:29;;;;;;;2.65;1.13;;;;;;;;;;4879154;29;20516;-71
2021/05/13 09:33:00;;;;;;;4.70;1.77;;;;;;;;;;4879171;29;20036;-68
2021/05/13 09:35:31;;;;;;;3.03;1.92;;;;;;;;;;4879051;29;20040;-71
2021/05/13 09:37:59;;;;;;;4.85;2.30;;;;;;;;;;4878313;29;20545;-70
2021/05/13 09:40:37;;;;;;;4.05;2.08;;;;;;;;;;4879064;29;20029;-70
2021/05/13 09:43:19;;;;;;;3.25;1.50;;;;;;;;;;4878636;29;20045;-71
2021/05/13 09:45:49;;;;;;;2.42;1.40;;;;;;;;;;4878584;29;20049;-70
2021/05/13 09:48:32;;;;;;;3.35;1.40;;;;;;;;;;4878936;29;20040;-70
2021/05/13 09:51:16;;;;;;;4.18;1.73;;;;;;;;;;4878756;29;20043;-67
2021/05/13 09:53:43;;;;;;;5.47;2.30;;;;;;;;;;4861471;29;20760;-71
2021/05/13 09:56:28;;;;;;;5.55;1.65;;;;;;;;;;4878740;29;20040;-69
2021/05/13 09:58:55;;;;;;;4.43;1.65;;;;;;;;;;4878274;29;20068;-70
2021/05/13 10:01:21;;;;;;;3.55;1.20;;;;;;;;;;4861310;29;20078;-70
2021/05/13 10:03:49;;;;;;;3.95;1.38;;;;;;;;;;4878556;29;20033;-71
2021/05/13 10:06:15;;;;;;;4.10;1.33;;;;;;;;;;4865761;29;20101;-71
2021/05/13 10:08:44;;;;;;;3.97;1.50;;;;;;;;;;4859533;29;20490;-73
2021/05/13 10:11:10;;;;;;;5.32;1.50;;;;;;;;;;4860360;29;20517;-73
2021/05/13 10:13:37;;;;;;;13.65;2.00;;;;;;;;;;4866519;29;20056;-73
2021/05/13 10:16:04;;;;;;;5.53;1.40;;;;;;;;;;4878193;29;20501;-65
2021/05/13 10:18:47;;;;;;;2.97;1.40;;;;;;;;;;4861151;29;20150;-72
2021/05/13 10:21:21;;;;;;;4.40;1.50;;;;;;;;;;4877465;29;20041;-74
2021/05/13 10:23:50;;;;;;;6.75;2.17;;;;;;;;;;4878061;29;20557;-75
2021/05/13 10:26:28;;;;;;;7.00;1.95;;;;;;;;;;4861302;29;20386;-75
2021/05/13 10:28:55;;;;;;;6.07;1.88;;;;;;;;;;4878157;29;20059;-76
2021/05/13 10:31:34;;;;;;;4.07;1.50;;;;;;;;;;4878379;29;20035;-73
2021/05/13 10:34:00;;;;;;;6.40;2.15;;;;;;;;;;4861002;29;20028;-73
2021/05/13 10:36:26;;;;;;;4.70;1.60;;;;;;;;;;4872778;29;20126;-71
2021/05/13 10:39:07;;;;;;;4.53;1.50;;;;;;;;;;4876613;29;20064;-71
2021/05/13 10:41:35;;;;;;;2.83;1.25;;;;;;;;;;4877650;29;20104;-70
2021/05/13 10:44:10;;;;;;;4.80;1.55;;;;;;;;;;4873701;29;20053;-64
2021/05/13 10:46:40;;;;;;;4.53;1.75;;;;;;;;;;4877253;29;20041;-69
2021/05/13 10:49:19;;;;;;;8.25;2.08;;;;;;;;;;4876683;29;20033;-69
2021/05/13 10:51:47;;;;;;;3.35;1.73;;;;;;;;;;4876573;29;20029;-69
2021/05/13 10:54:39;;;;;;;3.30;1.38;;;;;;;;;;4857649;29;20038;-69
2021/05/13 10:57:09;;;;;;;2.92;1.00;;;;;;;;;;4859829;29;20045;-67
2021/05/13 10:59:35;;;;;;;6.18;2.65;;;;;;;;;;4876879;29;20101;-70
2021/05/13 11:02:01;;;;;;;5.50;2.55;;;;;;;;;;4859658;29;20124;-68
2021/05/13 11:04:29;;;;;;;4.00;1.70;;;;;;;;;;4876208;29;20021;-68
2021/05/13 11:06:56;;;;;;;2.53;1.38;;;;;;;;;;4876703;29;20100;-68
2021/05/13 11:09:45;;;;;;;2.95;1.60;;;;;;;;;;4877121;29;20033;-63
2021/05/13 11:12:16;;;;;;;3.35;1.42;;;;;;;;;;4876686;29;20052;-66
2021/05/13 11:17:45;;;;;;;5.57;1.90;;;;;;;;;;4876562;29;20121;-66
2021/05/13 11:20:29;;;;;;;3.07;1.10;;;;;;;;;;4876498;29;20104;-69
2021/05/13 11:22:57;;;;;;;5.03;1.00;;;;;;;;;;4874850;29;20375;-63
2021/05/13 11:25:24;;;;;;;2.28;0.93;;;;;;;;;;4872734;29;20045;-65
2021/05/13 11:27:50;;;;;;;4.22;1.13;;;;;;;;;;4875474;29;20040;-63
2021/05/13 11:30:23;;;;;;;6.63;1.70;;;;;;;;;;4872286;29;20037;-68
2021/05/13 11:32:50;;;;;;;3.40;0.90;;;;;;;;;;4868405;29;20029;-70
2021/05/13 11:35:18;;;;;;;4.07;1.40;;;;;;;;;;4870761;29;20033;-70
2021/05/13 11:40:58;;;;;;;5.18;2.08;;;;;;;;;;4875388;29;20033;-71
2021/05/13 11:43:37;;;;;;;6.78;1.65;;;;;;;;;;4875069;29;20132;-73
2021/05/13 11:46:12;;;;;;;7.45;1.40;;;;;;;;;;4875443;29;20037;-74
2021/05/13 11:48:38;;;;;;;8.57;2.13;;;;;;;;;;5006133;23;20062;-70
2021/05/13 11:51:08;;;;;;;12.23;2.00;;;;;;;;;;4913836;29;20498;-69
2021/05/13 11:53:35;;;;;;;13.70;2.25;;;;;;;;;;4889094;29;20021;-70
2021/05/13 11:56:01;;;;;;;5.38;1.60;;;;;;;;;;4887722;29;20028;-76
2021/05/13 11:58:39;;;;;;;5.80;1.77;;;;;;;;;;4903868;29;20051;-69
2021/05/13 12:01:15;;;;;;;5.57;1.70;;;;;;;;;;4887935;29;20017;-69
2021/05/13 12:03:41;;;;;;;7.47;2.10;;;;;;;;;;4889955;29;20024;-76
2021/05/13 12:06:07;;;;;;;6.20;1.77;;;;;;;;;;4891169;29;20525;-71
2021/05/13 12:08:34;;;;;;;4.93;1.80;;;;;;;;;;4905030;29;20138;-73
2021/05/13 12:11:01;;;;;;;3.35;1.60;;;;;;;;;;4905938;29;20048;-71
2021/05/13 12:13:27;;;;;;;4.95;1.65;;;;;;;;;;4907593;29;20033;-75
2021/05/13 12:16:03;;;;;;;5.13;1.70;;;;;;;;;;4916344;29;20020;-73
2021/05/13 12:18:30;;;;;;;6.13;1.67;;;;;;;;;;4914691;29;20055;-75
2021/05/13 12:20:57;;;;;;;4.28;1.85;;;;;;;;;;4889910;29;20031;-75
2021/05/13 12:23:23;;;;;;;4.13;1.50;;;;;;;;;;4914646;29;20032;-76
2021/05/13 12:25:50;;;;;;;5.60;1.60;;;;;;;;;;4913056;29;20028;-73
2021/05/13 12:28:19;;;;;;;4.43;1.50;;;;;;;;;;4898689;29;20028;-77
2021/05/13 12:31:03;;;;;;;2.75;1.52;;;;;;;;;;4904065;29;20028;-75
2021/05/13 12:33:39;;;;;;;5.03;2.08;;;;;;;;;;4908601;29;20108;-71
2021/05/13 12:36:10;;;;;;;5.43;2.00;;;;;;;;;;4911434;29;20831;-73
2021/05/13 12:38:41;;;;;;;3.95;1.83;;;;;;;;;;4905319;29;20032;-73
2021/05/13 12:41:07;;;;;;;9.75;2.08;;;;;;;;;;4907381;29;20020;-77
2021/05/13 12:43:33;;;;;;;5.63;2.10;;;;;;;;;;4908333;29;20079;-73
2021/05/13 12:46:01;;;;;;;5.93;2.25;;;;;;;;;;4914954;29;20044;-73
2021/05/13 12:48:28;;;;;;;5.68;1.80;;;;;;;;;;4895011;29;20057;-87
2021/05/13 12:50:57;;;;;;;5.10;2.15;;;;;;;;;;4880360;29;20033;-81
2021/05/13 12:53:23;;;;;;;4.45;2.10;;;;;;;;;;4881148;29;20044;-83
2021/05/13 12:55:50;;;;;;;7.97;2.42;;;;;;;;;;4880521;29;20029;-73
2021/05/13 12:58:17;;;;;;;6.32;2.45;;;;;;;;;;4894630;29;20485;-78
2021/05/13 13:00:44;;;;;;;7.40;2.80;;;;;;;;;;4881334;29;20068;-79
2021/05/13 13:03:15;;;;;;;8.98;2.10;;;;;;;;;;4898063;29;20039;-80
2021/05/13 13:05:42;;;;;;;5.35;2.00;;;;;;;;;;4897859;29;20016;-82
2021/05/13 13:08:09;;;;;;;5.32;1.80;;;;;;;;;;4894838;29;20088;-79
2021/05/13 13:10:43;;;;;;;7.22;2.10;;;;;;;;;;4877215;29;20077;-75
2021/05/13 13:13:15;;;;;;;6.20;2.17;;;;;;;;;;4896342;29;20027;-76
2021/05/13 13:15:52;;;;;;;6.05;3.20;;;;;;;;;;4898136;29;20044;-82
2021/05/13 13:18:19;;;;;;;7.10;2.10;;;;;;;;;;4897009;29;20083;-69
2021/05/13 13:20:46;;;;;;;4.00;1.92;;;;;;;;;;4881081;29;20052;-70
2021/05/13 13:23:18;;;;;;;5.03;1.88;;;;;;;;;;4898263;29;20088;-71
2021/05/13 13:25:44;;;;;;;4.68;2.33;;;;;;;;;;4897836;29;20075;-72
2021/05/13 13:28:10;;;;;;;6.10;2.28;;;;;;;;;;4897897;29;20063;-69
2021/05/13 13:30:36;;;;;;;6.03;3.05;;;;;;;;;;4880647;29;20056;-69
2021/05/13 13:33:13;;;;;;;6.25;1.67;;;;;;;;;;4897316;29;20104;-77
2021/05/13 13:35:40;;;;;;;4.53;2.10;;;;;;;;;;4897842;29;20029;-72
2021/05/13 13:38:08;;;;;;;5.47;1.95;;;;;;;;;;4897755;29;20473;-72
2021/05/13 13:40:35;;;;;;;7.32;2.50;;;;;;;;;;4897901;29;20164;-68
2021/05/13 13:43:01;;;;;;;5.85;2.72;;;;;;;;;;4897774;29;20056;-68
2021/05/13 13:45:27;;;;;;;6.93;2.67;;;;;;;;;;4897319;29;20028;-78
2021/05/13 13:47:53;;;;;;;6.40;2.03;;;;;;;;;;4897083;29;20061;-75
2021/05/13 13:50:19;;;;;;;4.20;2.08;;;;;;;;;;4897518;29;20107;-69
2021/05/13 13:52:45;;;;;;;4.40;2.30;;;;;;;;;;4897452;29;20539;-68
2021/05/13 13:55:12;;;;;;;6.15;1.83;;;;;;;;;;4897074;29;20051;-74
2021/05/13 13:57:39;;;;;;;5.45;2.30;;;;;;;;;;4880617;29;20044;-71
2021/05/13 14:00:06;;;;;;;9.23;2.03;;;;;;;;;;4896934;29;20102;-73
2021/05/13 14:02:35;;;;;;;5.13;2.15;;;;;;;;;;4897496;29;20080;-77
2021/05/13 14:05:01;;;;;;;7.10;2.25;;;;;;;;;;4897030;29;20040;-69
2021/05/13 14:07:27;;;;;;;7.05;2.00;;;;;;;;;;4896861;29;20025;-71
2021/05/13 14:09:54;;;;;;;4.88;1.80;;;;;;;;;;4896851;29;20128;-74
2021/05/13 14:12:20;;;;;;;5.90;1.90;;;;;;;;;;4897253;29;20031;-74
2021/05/13 14:14:46;;;;;;;5.40;1.55;;;;;;;;;;4879519;29;20080;-73
2021/05/13 14:17:13;;;;;;;4.22;1.70;;;;;;;;;;4896623;29;20044;-73
2021/05/13 14:19:39;;;;;;;7.10;1.83;;;;;;;;;;4897195;29;20111;-74
2021/05/13 14:22:07;;;;;;;5.85;1.83;;;;;;;;;;4896596;29;20068;-80
2021/05/13 14:24:33;;;;;;;8.88;1.77;;;;;;;;;;4895702;29;20108;-73
2021/05/13 14:26:59;;;;;;;6.57;1.60;;;;;;;;;;4896726;29;20072;-72
2021/05/13 14:29:25;;;;;;;6.80;1.70;;;;;;;;;;4897207;29;20033;-71
2021/05/13 14:31:51;;;;;;;4.70;1.60;;;;;;;;;;4898439;29;20496;-74
2021/05/13 14:34:18;;;;;;;7.47;2.20;;;;;;;;;;4879939;29;20393;-71
2021/05/13 14:36:44;;;;;;;6.30;1.90;;;;;;;;;;4871243;29;20537;-73
2021/05/13 14:39:10;;;;;;;6.05;1.90;;;;;;;;;;4866110;29;20105;-79
2021/05/13 14:41:37;;;;;;;7.13;1.75;;;;;;;;;;4886862;29;20024;-74
2021/05/13 14:44:04;;;;;;;5.35;1.70;;;;;;;;;;4887918;29;20028;-77
2021/05/13 14:46:30;;;;;;;8.68;2.30;;;;;;;;;;4885357;29;20028;-75
2021/05/13 14:49:13;;;;;;;3.90;2.25;;;;;;;;;;4887392;29;20136;-72
2021/05/13 14:51:40;;;;;;;9.52;2.65;;;;;;;;;;4885694;29;20481;-72
2021/05/13 14:54:09;;;;;;;8.57;4.45;;;;;;;;;;4885398;29;20476;-74
2021/05/13 14:56:35;;;;;;;12.15;2.75;;;;;;;;;;4892879;29;20139;-75
2021/05/13 14:59:07;;;;;;;5.53;1.70;;;;;;;;;;4884124;29;20047;-72